sim
Sign-in with your pilot id or email,
or register
Callsign
Passwort

Schedule Details

Flight Number: OEO1603
Departure: Biarritz Pays Basque Airport (LFBZ) at 14:05
Arrival: Munich Airport (EDDM) at 16:10

Weather Information
Getting current METAR information for LFBZ 241130Z AUTO 26006KT 220V300 9999 BKN016/// BKN023/// BKN030/// ///TCU 19/17 Q1012 TEMPO 1500 SHRA BKN006 BKN020TCU BECMG 30015G25KT
Getting current METAR information for EDDM 241120Z 22005KT 130V250 9999 FEW033 20/13 Q1010 NOSIG

Schedule Frequency

Route Map